Time;durP1;ratioP1;P1;durP2;ratioP2;P2;SDS_P1;SDS_P2;PMS_P1;PMS_P2;Temp;Humidity;BMP_temperature;BMP_pressure;BME280_temperature;BME280_humidity;BME280_pressure;Samples;Min_cycle;Max_cycle;Signal;HPM_P1;HPM_P2
2023/07/04 00:00:58;;;;;;;7.90;3.17;;;;;;;14.80;100.00;100979.03;5044302;28;20219;-73
2023/07/04 00:03:24;;;;;;;11.38;3.13;;;;;;;14.94;100.00;100973.44;5031456;28;20038;-73
2023/07/04 00:05:50;;;;;;;10.10;2.97;;;;;;;15.00;100.00;100969.38;5029308;28;20598;-73
2023/07/04 00:08:15;;;;;;;7.10;3.13;;;;;;;14.90;100.00;100963.91;5032328;28;20079;-73
2023/07/04 00:10:42;;;;;;;13.55;2.83;;;;;;;15.02;100.00;100980.88;5034216;28;20128;-73
2023/07/04 00:13:07;;;;;;;6.75;2.95;;;;;;;15.05;100.00;100979.78;5030791;28;20029;-72
2023/07/04 00:15:33;;;;;;;9.43;2.85;;;;;;;15.03;100.00;100963.78;5034876;28;20041;-73
2023/07/04 00:17:59;;;;;;;9.88;3.30;;;;;;;14.91;100.00;100968.31;5036683;28;20914;-73
2023/07/04 00:20:25;;;;;;;9.27;2.95;;;;;;;14.94;100.00;100959.16;5038644;28;20041;-73
2023/07/04 00:22:51;;;;;;;11.13;2.88;;;;;;;14.90;100.00;100960.38;5032795;28;20084;-73
2023/07/04 00:25:18;;;;;;;14.07;3.50;;;;;;;14.98;100.00;100958.78;5031407;28;20400;-72
2023/07/04 00:27:44;;;;;;;15.70;3.08;;;;;;;14.97;100.00;100959.75;5032944;28;20044;-72
2023/07/04 00:30:12;;;;;;;7.93;2.80;;;;;;;15.01;100.00;100960.38;5041861;28;20038;-72
2023/07/04 00:32:38;;;;;;;9.80;3.28;;;;;;;15.05;100.00;100972.56;5029512;28;20033;-72
2023/07/04 00:35:06;;;;;;;13.50;3.80;;;;;;;15.02;100.00;100992.47;5031453;28;20041;-73
2023/07/04 00:37:32;;;;;;;10.43;2.58;;;;;;;14.89;100.00;100985.50;5030459;28;20030;-73
2023/07/04 00:39:57;;;;;;;11.95;3.53;;;;;;;15.02;100.00;100968.31;5032626;28;20046;-72
2023/07/04 00:42:23;;;;;;;8.52;3.00;;;;;;;15.02;100.00;100971.00;5035749;28;20470;-73
2023/07/04 00:44:54;;;;;;;10.82;3.05;;;;;;;14.73;100.00;100962.56;5030667;28;20042;-73
2023/07/04 00:47:32;;;;;;;8.20;3.28;;;;;;;14.97;100.00;100954.41;5022624;28;20029;-73
2023/07/04 00:50:07;;;;;;;13.43;3.75;;;;;;;14.93;100.00;100969.03;5037496;28;20049;-73
2023/07/04 00:52:36;;;;;;;14.52;3.05;;;;;;;14.85;100.00;100965.25;5035747;28;20105;-73
2023/07/04 00:55:09;;;;;;;10.18;2.55;;;;;;;14.86;100.00;100956.22;5033201;28;20033;-73
2023/07/04 00:57:35;;;;;;;9.07;2.80;;;;;;;14.88;100.00;100962.31;5035486;28;20045;-72
2023/07/04 01:00:40;;;;;;;11.10;3.65;;;;;;;15.02;100.00;100960.25;5037006;28;20152;-73
2023/07/04 01:03:11;;;;;;;8.60;3.00;;;;;;;14.87;100.00;100957.94;5035040;28;20091;-73
2023/07/04 01:06:06;;;;;;;12.82;3.22;;;;;;;14.87;100.00;100964.16;5045822;28;20069;-73
2023/07/04 01:08:36;;;;;;;7.78;2.38;;;;;;;14.94;100.00;100957.31;5039859;28;20104;-73
2023/07/04 01:11:07;;;;;;;10.88;3.00;;;;;;;14.97;100.00;100957.09;5036177;28;20048;-73
2023/07/04 01:13:37;;;;;;;8.48;2.97;;;;;;;14.95;100.00;100967.06;5050708;28;20120;-73
2023/07/04 01:16:18;;;;;;;12.45;3.28;;;;;;;14.72;100.00;100970.75;5037108;28;20205;-73
2023/07/04 01:18:49;;;;;;;10.07;3.03;;;;;;;14.82;100.00;100982.47;5033606;28;20037;-73
2023/07/04 01:21:18;;;;;;;11.60;2.85;;;;;;;14.63;100.00;100976.81;5038506;28;20038;-72
2023/07/04 01:24:11;;;;;;;15.20;3.72;;;;;;;14.65;100.00;100985.59;5039138;28;20041;-73
2023/07/04 01:26:44;;;;;;;13.35;4.03;;;;;;;14.54;100.00;100994.50;5031437;28;20030;-73
2023/07/04 01:29:13;;;;;;;10.48;3.22;;;;;;;14.43;100.00;101008.72;5035952;28;20041;-73
2023/07/04 01:31:40;;;;;;;15.23;3.70;;;;;;;14.61;100.00;101010.97;5037567;28;20034;-73
2023/07/04 01:34:08;;;;;;;15.38;4.32;;;;;;;14.53;100.00;101019.63;5034410;28;20033;-73
2023/07/04 01:36:37;;;;;;;14.00;3.80;;;;;;;14.50;100.00;101019.84;5036202;28;20041;-73
2023/07/04 01:39:05;;;;;;;17.08;4.30;;;;;;;14.54;100.00;101017.78;5016612;28;20045;-72
2023/07/04 01:41:32;;;;;;;11.98;4.65;;;;;;;14.57;100.00;101039.91;5034292;28;20144;-73
2023/07/04 01:44:07;;;;;;;15.80;4.88;;;;;;;14.53;100.00;101026.81;5036697;28;20139;-72
2023/07/04 01:46:34;;;;;;;13.05;3.80;;;;;;;14.52;100.00;101025.13;5035347;28;20120;-72
2023/07/04 01:49:01;;;;;;;10.05;3.80;;;;;;;14.46;100.00;101021.91;5036946;28;20124;-73
2023/07/04 01:51:36;;;;;;;21.70;5.07;;;;;;;14.46;100.00;101015.69;5035856;28;20140;-73
2023/07/04 01:54:03;;;;;;;16.52;3.72;;;;;;;14.52;100.00;101020.59;5033350;28;20059;-73
2023/07/04 01:56:30;;;;;;;17.33;4.65;;;;;;;14.56;100.00;101024.78;5032190;28;20120;-72
2023/07/04 01:58:55;;;;;;;16.08;5.22;;;;;;;14.53;100.00;101018.78;5032084;28;20049;-73
2023/07/04 02:01:22;;;;;;;16.60;4.75;;;;;;;14.60;100.00;101022.69;5035451;28;20878;-73
2023/07/04 02:03:47;;;;;;;13.38;4.43;;;;;;;14.60;100.00;101010.13;5038680;28;20029;-72
2023/07/04 02:06:14;;;;;;;21.38;5.20;;;;;;;14.61;100.00;101003.81;5031421;28;20042;-73
2023/07/04 02:08:40;;;;;;;19.05;5.68;;;;;;;14.71;100.00;101002.09;5037158;28;20349;-72
2023/07/04 02:11:06;;;;;;;17.70;6.20;;;;;;;14.63;100.00;100998.31;5033243;28;20084;-72
2023/07/04 02:13:32;;;;;;;25.98;6.47;;;;;;;14.66;100.00;100995.34;5035561;28;21084;-73
2023/07/04 02:15:57;;;;;;;20.95;6.10;;;;;;;14.69;100.00;100992.44;5032067;28;20045;-73
2023/07/04 02:18:25;;;;;;;15.50;5.68;;;;;;;14.74;100.00;100987.56;5033789;28;20096;-73
2023/07/04 02:20:51;;;;;;;18.30;5.57;;;;;;;14.80;100.00;100988.91;5036399;28;20052;-73
2023/07/04 02:23:16;;;;;;;13.85;5.65;;;;;;;14.89;100.00;100996.25;5032372;28;20168;-73
2023/07/04 02:25:42;;;;;;;16.85;5.70;;;;;;;14.72;100.00;100986.84;5035784;28;20111;-73
2023/07/04 02:28:09;;;;;;;19.67;6.53;;;;;;;14.83;100.00;100999.44;5035505;28;20037;-72
2023/07/04 02:30:35;;;;;;;18.48;5.32;;;;;;;14.75;100.00;100992.81;5040135;28;20033;-73
2023/07/04 02:33:01;;;;;;;17.42;5.10;;;;;;;14.87;100.00;100991.00;5067809;28;20056;-72
2023/07/04 02:35:28;;;;;;;16.50;5.55;;;;;;;14.75;100.00;100990.13;5043035;28;20044;-72
2023/07/04 02:37:54;;;;;;;17.38;5.97;;;;;;;14.76;100.00;100982.97;5034655;28;20130;-72
2023/07/04 02:40:20;;;;;;;13.63;5.65;;;;;;;14.76;100.00;100983.81;5016573;28;20041;-73
2023/07/04 02:42:46;;;;;;;18.38;5.97;;;;;;;14.80;100.00;100983.53;5031877;28;20553;-73
2023/07/04 02:45:12;;;;;;;22.52;6.28;;;;;;;14.93;100.00;100979.78;5032835;28;20037;-73
2023/07/04 02:47:38;;;;;;;20.20;7.75;;;;;;;14.83;100.00;100984.16;5064319;28;20036;-73
2023/07/04 02:50:08;;;;;;;24.75;7.40;;;;;;;14.71;100.00;100983.31;5033863;28;20068;-73
2023/07/04 02:52:35;;;;;;;20.05;6.97;;;;;;;14.81;100.00;100983.44;5037706;28;20045;-73
2023/07/04 02:55:00;;;;;;;20.40;6.53;;;;;;;14.80;100.00;100978.19;5037059;28;21061;-73
2023/07/04 02:57:26;;;;;;;18.70;6.50;;;;;;;14.71;100.00;100977.09;5033587;28;20064;-73
2023/07/04 02:59:52;;;;;;;17.25;5.85;;;;;;;14.73;100.00;100975.97;5032672;28;20045;-73
2023/07/04 03:02:18;;;;;;;16.83;6.35;;;;;;;14.73;100.00;100984.03;5034261;28;20034;-72
2023/07/04 03:04:45;;;;;;;15.85;6.28;;;;;;;14.48;100.00;100979.72;5035630;28;20034;-72
2023/07/04 03:07:12;;;;;;;15.57;5.70;;;;;;;14.66;100.00;100979.25;5035581;28;20037;-72
2023/07/04 03:09:38;;;;;;;22.45;7.03;;;;;;;14.53;100.00;100986.56;5029727;28;20064;-73
2023/07/04 03:12:05;;;;;;;20.52;6.18;;;;;;;14.49;100.00;100981.44;5030177;28;20041;-72
2023/07/04 03:14:31;;;;;;;22.20;5.70;;;;;;;14.39;100.00;100984.91;5028986;28;20029;-73
2023/07/04 03:16:56;;;;;;;15.93;5.88;;;;;;;14.28;100.00;100992.94;5030379;28;20698;-73
2023/07/04 03:19:22;;;;;;;16.02;5.53;;;;;;;14.24;100.00;100995.84;5070870;28;20045;-73
2023/07/04 03:21:48;;;;;;;22.67;5.82;;;;;;;14.21;100.00;100996.09;5038120;28;20140;-73
2023/07/04 03:24:13;;;;;;;14.40;5.20;;;;;;;14.21;100.00;100989.88;5012354;28;20922;-73
2023/07/04 03:26:40;;;;;;;21.98;6.10;;;;;;;14.17;100.00;100993.75;5036671;28;21001;-72
2023/07/04 03:29:07;;;;;;;17.55;6.32;;;;;;;14.14;100.00;100992.16;5034225;28;20560;-72
2023/07/04 03:31:34;;;;;;;13.40;5.57;;;;;;;14.10;100.00;100997.88;5033131;28;20030;-72
2023/07/04 03:34:01;;;;;;;15.30;5.35;;;;;;;14.09;100.00;100997.00;5034719;28;20613;-72
2023/07/04 03:36:26;;;;;;;14.38;4.93;;;;;;;14.04;100.00;100996.50;5035804;28;20084;-72
2023/07/04 03:38:52;;;;;;;12.75;5.07;;;;;;;14.05;100.00;100995.53;5031758;28;20230;-72
2023/07/04 03:41:17;;;;;;;11.35;5.32;;;;;;;14.19;100.00;100997.16;5033261;28;20119;-72
2023/07/04 03:43:43;;;;;;;12.27;5.15;;;;;;;14.31;100.00;100995.38;5032102;28;20037;-72
2023/07/04 03:46:09;;;;;;;17.13;6.18;;;;;;;14.47;100.00;100987.88;5035073;28;20702;-72
2023/07/04 03:48:35;;;;;;;16.42;6.05;;;;;;;14.53;100.00;101000.00;5032359;28;20084;-72
2023/07/04 03:51:01;;;;;;;12.77;5.03;;;;;;;14.68;100.00;100991.59;5039222;28;20069;-72
2023/07/04 03:53:27;;;;;;;13.48;5.57;;;;;;;14.86;100.00;100994.69;5040953;28;20146;-72
2023/07/04 03:55:52;;;;;;;15.43;5.22;;;;;;;15.14;100.00;100998.69;5036874;28;20060;-72
2023/07/04 03:58:18;;;;;;;14.05;4.80;;;;;;;15.11;100.00;100995.38;5031585;28;20036;-72
2023/07/04 04:00:47;;;;;;;15.82;5.10;;;;;;;15.31;100.00;100991.94;5040880;28;20059;-73
2023/07/04 04:03:12;;;;;;;13.52;4.88;;;;;;;15.47;100.00;100987.06;5032605;28;20164;-72
2023/07/04 04:05:39;;;;;;;16.42;4.85;;;;;;;15.25;100.00;100982.56;5032104;28;20176;-72
2023/07/04 04:08:04;;;;;;;11.00;4.40;;;;;;;15.39;100.00;100986.81;5036965;28;20033;-73
2023/07/04 04:10:30;;;;;;;15.93;4.72;;;;;;;15.34;100.00;100986.34;5042634;28;20033;-72
2023/07/04 04:12:55;;;;;;;15.90;5.22;;;;;;;15.26;100.00;100991.47;5034231;28;20575;-72
2023/07/04 04:15:21;;;;;;;16.45;4.50;;;;;;;15.23;100.00;100986.38;5037893;28;20100;-72
2023/07/04 04:17:47;;;;;;;15.75;4.72;;;;;;;15.32;100.00;100998.22;5038505;28;20087;-73
2023/07/04 04:20:13;;;;;;;16.40;5.07;;;;;;;15.35;100.00;100993.41;5038049;28;20037;-73
2023/07/04 04:22:43;;;;;;;16.00;5.22;;;;;;;15.29;100.00;100999.28;5034930;28;20032;-73
2023/07/04 04:25:09;;;;;;;14.75;5.43;;;;;;;15.26;100.00;101003.09;5034754;28;20111;-72
2023/07/04 04:27:35;;;;;;;16.05;4.70;;;;;;;15.32;100.00;101006.28;5035642;28;20430;-72
2023/07/04 04:30:05;;;;;;;14.57;5.50;;;;;;;15.52;100.00;101021.63;5048615;28;20037;-73
2023/07/04 04:32:31;;;;;;;21.38;5.65;;;;;;;15.49;100.00;101005.75;5039475;28;20034;-72
2023/07/04 04:34:56;;;;;;;15.27;6.18;;;;;;;15.33;100.00;101014.19;5038551;28;20056;-71
2023/07/04 04:37:23;;;;;;;20.38;7.10;;;;;;;15.36;100.00;101016.66;5039462;28;20772;-72
2023/07/04 04:39:49;;;;;;;21.25;7.03;;;;;;;15.41;100.00;101009.06;5042397;28;20041;-73
2023/07/04 04:42:15;;;;;;;17.48;7.07;;;;;;;15.52;100.00;101013.56;5038266;28;20114;-72
2023/07/04 04:44:41;;;;;;;19.73;6.70;;;;;;;15.51;100.00;101015.41;5042856;28;20123;-72
2023/07/04 04:47:07;;;;;;;25.58;8.60;;;;;;;15.45;100.00;101023.09;5025288;28;20043;-73
2023/07/04 04:49:33;;;;;;;20.17;7.35;;;;;;;15.61;100.00;101014.63;5037598;28;20038;-73
2023/07/04 04:51:58;;;;;;;23.05;7.35;;;;;;;15.71;100.00;101015.63;5038744;28;20077;-72
2023/07/04 04:54:24;;;;;;;19.75;7.30;;;;;;;16.70;100.00;101015.28;5024132;28;20435;-73
2023/07/04 04:56:50;;;;;;;19.98;7.20;;;;;;;17.15;100.00;101011.44;5039296;28;20037;-72
2023/07/04 04:59:15;;;;;;;20.85;8.15;;;;;;;16.97;100.00;101011.25;5043017;28;20087;-72
2023/07/04 05:01:41;;;;;;;26.98;7.53;;;;;;;17.22;100.00;101017.97;5037700;28;20042;-72
2023/07/04 05:04:07;;;;;;;24.45;7.22;;;;;;;18.07;100.00;101012.97;5043732;28;20036;-73
2023/07/04 05:06:32;;;;;;;17.13;6.38;;;;;;;19.01;100.00;101009.56;5052321;28;20026;-73
2023/07/04 05:08:58;;;;;;;23.20;8.38;;;;;;;20.56;100.00;100998.59;5039363;28;20076;-73
2023/07/04 05:11:24;;;;;;;25.50;7.38;;;;;;;21.12;92.42;100999.09;5036827;28;20434;-73
2023/07/04 05:13:50;;;;;;;17.92;7.47;;;;;;;21.44;88.15;101003.88;5040765;28;20037;-73
2023/07/04 05:16:21;;;;;;;27.30;7.40;;;;;;;20.38;92.95;101003.16;5040665;28;20036;-73
2023/07/04 05:18:48;;;;;;;25.15;7.97;;;;;;;20.34;96.92;101005.34;5035588;28;20113;-72
2023/07/04 05:21:20;;;;;;;26.40;8.18;;;;;;;20.06;96.62;101009.16;5044207;28;20051;-73
2023/07/04 05:23:46;;;;;;;;;;;;;;;18.83;100.00;101017.63;5038215;28;20025;-73
2023/07/04 05:26:13;;;;;;;18.98;7.15;;;;;;;18.25;100.00;101015.81;5040369;28;19921;-73
2023/07/04 05:28:39;;;;;;;24.95;8.32;;;;;;;18.17;100.00;101015.66;5037079;28;20302;-73
2023/07/04 05:31:08;;;;;;;19.73;7.80;;;;;;;17.64;100.00;101024.09;5043500;28;20049;-73
2023/07/04 05:33:35;;;;;;;23.23;7.35;;;;;;;17.62;100.00;101015.31;5034954;28;20042;-73
2023/07/04 05:36:10;;;;;;;27.35;9.32;;;;;;;17.62;100.00;101012.59;5034155;28;20100;-73
2023/07/04 05:38:37;;;;;;;34.13;10.57;;;;;;;17.51;100.00;101023.47;5033709;28;20033;-73
2023/07/04 05:41:11;;;;;;;27.73;8.52;;;;;;;17.77;100.00;101030.13;5036911;28;20037;-73
2023/07/04 05:43:37;;;;;;;30.85;9.23;;;;;;;17.87;100.00;101040.91;5037566;28;20037;-73
2023/07/04 05:46:03;;;;;;;22.60;8.98;;;;;;;17.66;100.00;101032.88;5040890;28;20029;-73
2023/07/04 05:48:29;;;;;;;27.13;9.82;;;;;;;17.62;100.00;101031.47;5037205;28;20033;-73
2023/07/04 05:51:01;;;;;;;26.83;9.45;;;;;;;17.64;100.00;101031.34;5035716;28;20053;-73
2023/07/04 05:53:29;;;;;;;30.88;10.48;;;;;;;17.72;100.00;101034.19;5036410;28;20182;-72
2023/07/04 05:56:11;;;;;;;27.92;10.02;;;;;;;17.75;100.00;101032.09;5034312;28;20040;-72
2023/07/04 05:58:40;;;;;;;32.50;11.00;;;;;;;17.89;100.00;101027.31;5038132;28;20049;-72
2023/07/04 06:01:11;;;;;;;33.80;10.45;;;;;;;18.06;100.00;101037.38;5064963;28;20092;-73
2023/07/04 06:03:38;;;;;;;22.70;9.80;;;;;;;18.23;100.00;101025.06;5036271;28;20182;-73
2023/07/04 06:06:05;;;;;;;29.15;9.18;;;;;;;18.28;100.00;101037.13;5038906;28;20041;-73
2023/07/04 06:08:32;;;;;;;37.45;10.20;;;;;;;18.80;100.00;101034.09;5036592;28;20029;-73
2023/07/04 06:11:00;;;;;;;31.52;10.00;;;;;;;19.42;100.00;101028.03;5036042;28;20042;-73
2023/07/04 06:13:26;;;;;;;29.70;10.40;;;;;;;20.21;100.00;101028.41;5031452;28;20706;-72
2023/07/04 06:15:52;;;;;;;22.67;9.40;;;;;;;20.32;100.00;101022.75;5032880;28;20237;-73
2023/07/04 06:18:17;;;;;;;24.60;8.40;;;;;;;20.94;99.67;101018.19;5034385;28;20097;-73
2023/07/04 06:20:43;;;;;;;24.02;9.23;;;;;;;21.15;94.93;101020.50;5034218;28;20052;-72
2023/07/04 06:23:09;;;;;;;21.15;8.27;;;;;;;20.61;96.86;101034.19;5034650;28;20048;-73
2023/07/04 06:25:34;;;;;;;24.58;9.13;;;;;;;20.23;97.71;101037.22;5033483;28;20035;-72
2023/07/04 06:28:00;;;;;;;29.80;9.63;;;;;;;20.55;97.90;101040.25;5037539;28;20048;-73
2023/07/04 06:30:29;;;;;;;27.83;9.35;;;;;;;20.95;95.33;101031.56;5036802;28;20059;-73
2023/07/04 06:32:58;;;;;;;28.00;8.23;;;;;;;21.13;90.21;101041.47;5037155;28;20051;-73
2023/07/04 06:35:24;;;;;;;22.05;7.72;;;;;;;21.16;92.15;101043.88;5033520;28;20101;-72
2023/07/04 06:37:49;;;;;;;28.60;9.05;;;;;;;20.45;91.65;101055.72;5038461;28;20037;-71
2023/07/04 06:40:15;;;;;;;26.80;8.85;;;;;;;19.96;100.00;101062.50;5052153;28;20041;-72
2023/07/04 06:42:41;;;;;;;35.17;8.48;;;;;;;20.17;98.26;101069.31;5039484;28;20538;-73
2023/07/04 06:45:07;;;;;;;29.60;8.80;;;;;;;20.28;97.30;101065.56;5039583;28;20029;-73
2023/07/04 06:47:32;;;;;;;24.15;7.97;;;;;;;20.43;96.88;101063.13;5032034;28;20030;-74
2023/07/04 06:49:58;;;;;;;28.30;8.00;;;;;;;20.82;97.61;101060.09;5032547;28;20049;-71
2023/07/04 06:52:24;;;;;;;32.45;9.30;;;;;;;20.80;94.16;101060.28;5031206;28;20049;-72
2023/07/04 06:54:50;;;;;;;29.58;8.27;;;;;;;21.15;94.21;101062.03;5039519;28;20029;-72
2023/07/04 06:57:16;;;;;;;32.63;8.75;;;;;;;21.04;91.28;101069.59;5036261;28;20033;-74
2023/07/04 06:59:44;;;;;;;28.23;8.18;;;;;;;20.68;94.22;101070.53;5035944;28;20519;-72
2023/07/04 07:02:11;;;;;;;31.95;9.20;;;;;;;20.54;94.74;101067.53;5035094;28;20037;-72
2023/07/04 07:04:37;;;;;;;33.03;9.50;;;;;;;20.66;95.10;101067.09;5036800;28;20025;-71
2023/07/04 07:07:03;;;;;;;30.23;8.80;;;;;;;20.79;91.43;101063.16;5031632;28;20041;-71
2023/07/04 07:09:30;;;;;;;28.80;7.80;;;;;;;21.15;91.56;101056.59;5032222;28;20636;-72
2023/07/04 07:11:56;;;;;;;36.47;9.25;;;;;;;20.66;90.33;101061.69;5033024;28;20033;-73
2023/07/04 07:14:21;;;;;;;29.63;7.95;;;;;;;21.14;90.64;101065.75;5033832;28;20256;-72
2023/07/04 07:16:47;;;;;;;29.90;8.88;;;;;;;21.21;89.93;101058.66;5032705;28;20040;-72
2023/07/04 07:19:14;;;;;;;23.98;7.68;;;;;;;20.73;91.70;101072.72;5032222;28;20570;-71
2023/07/04 07:21:40;;;;;;;26.00;8.32;;;;;;;21.25;89.61;101072.75;5036785;28;20061;-72
2023/07/04 07:24:06;;;;;;;26.08;7.65;;;;;;;21.11;88.87;101067.94;5034192;28;20033;-72
2023/07/04 07:26:33;;;;;;;20.58;6.90;;;;;;;20.97;84.92;101072.06;5035022;28;20030;-73
2023/07/04 07:28:58;;;;;;;24.77;7.63;;;;;;;20.53;87.76;101090.19;5037594;28;20045;-71
2023/07/04 07:31:26;;;;;;;23.98;6.65;;;;;;;20.74;91.77;101081.75;5035649;28;20033;-73
2023/07/04 07:33:52;;;;;;;22.20;6.20;;;;;;;21.17;88.59;101076.25;5039114;28;20028;-72
2023/07/04 07:36:39;;;;;;;28.75;7.70;;;;;;;21.89;82.96;101079.53;5037576;28;20040;-72
2023/07/04 07:39:07;;;;;;;25.70;6.93;;;;;;;21.90;80.73;101074.94;5037694;28;20131;-72
2023/07/04 07:41:36;;;;;;;21.48;7.35;;;;;;;22.16;80.07;101078.41;5031531;28;20034;-73
2023/07/04 07:44:03;;;;;;;27.10;6.68;;;;;;;22.15;78.88;101073.16;5032189;28;20044;-72
2023/07/04 07:46:29;;;;;;;25.02;6.35;;;;;;;22.54;77.71;101075.22;5030355;28;20048;-72
2023/07/04 07:48:56;;;;;;;21.42;6.25;;;;;;;21.98;77.98;101062.22;5030895;28;20056;-72
2023/07/04 07:51:21;;;;;;;18.92;5.93;;;;;;;21.42;76.06;101061.00;5031185;28;20116;-72
2023/07/04 07:53:49;;;;;;;17.80;5.82;;;;;;;21.20;79.04;101062.38;5031221;28;20118;-71
2023/07/04 07:56:21;;;;;;;14.45;5.18;;;;;;;20.88;81.22;101071.19;5029141;28;20033;-71
2023/07/04 07:58:47;;;;;;;16.40;5.75;;;;;;;21.07;82.08;101077.38;5030436;28;20526;-71
2023/07/04 08:01:17;;;;;;;19.65;5.90;;;;;;;20.94;81.18;101069.69;5030595;28;20234;-72
2023/07/04 08:03:44;;;;;;;15.48;5.70;;;;;;;21.20;77.87;101065.09;5034289;28;20037;-72
2023/07/04 08:06:26;;;;;;;18.08;5.50;;;;;;;21.42;76.26;101079.16;5031239;28;20033;-71
2023/07/04 08:08:52;;;;;;;;;;;;;;;21.24;74.59;101070.22;5036196;28;20097;-72
2023/07/04 08:11:18;;;;;;;17.33;5.28;;;;;;;21.15;73.96;101067.44;5028398;28;20016;-71
2023/07/04 08:13:44;;;;;;;21.63;5.63;;;;;;;21.24;73.21;101067.50;5029407;28;20637;-72
2023/07/04 08:16:10;;;;;;;17.92;5.57;;;;;;;21.73;72.44;101074.88;5034330;28;20776;-72
2023/07/04 08:18:35;;;;;;;19.42;4.80;;;;;;;21.71;69.74;101078.78;5033536;28;20033;-72
2023/07/04 08:21:03;;;;;;;17.77;4.72;;;;;;;21.73;70.60;101082.16;5036782;28;20040;-72
2023/07/04 08:23:29;;;;;;;19.42;4.80;;;;;;;21.65;69.85;101084.88;5033015;28;20429;-72
2023/07/04 08:25:55;;;;;;;15.90;5.30;;;;;;;21.69;67.96;101078.94;5034441;28;20114;-72
2023/07/04 08:28:26;;;;;;;21.15;5.80;;;;;;;21.31;69.50;101068.59;5028671;28;21070;-71
2023/07/04 08:30:51;;;;;;;15.57;5.38;;;;;;;22.15;67.14;101079.44;5030172;28;20068;-74
2023/07/04 08:33:18;;;;;;;13.18;5.05;;;;;;;21.84;67.47;101092.75;5032607;28;20030;-72
2023/07/04 08:35:53;;;;;;;11.98;4.32;;;;;;;21.83;64.56;101088.31;5034268;28;20030;-73
2023/07/04 08:38:19;;;;;;;13.60;4.93;;;;;;;22.20;65.12;101092.53;5030783;28;20044;-73
2023/07/04 08:40:45;;;;;;;15.52;4.28;;;;;;;21.52;63.05;101085.28;5042634;28;20040;-71
2023/07/04 08:43:11;;;;;;;13.15;4.85;;;;;;;21.69;63.12;101097.09;5035329;28;20143;-70
2023/07/04 08:45:37;;;;;;;21.77;4.75;;;;;;;21.49;63.92;101082.94;5039401;28;20048;-72
2023/07/04 08:48:03;;;;;;;15.80;4.30;;;;;;;21.37;65.05;101082.34;5032228;28;20037;-72
2023/07/04 08:50:35;;;;;;;21.90;4.95;;;;;;;21.25;64.52;101088.19;5039155;28;20045;-73
2023/07/04 08:53:19;;;;;;;15.93;4.20;;;;;;;20.77;63.22;101086.81;5032790;28;20410;-71
2023/07/04 08:56:09;;;;;;;15.00;4.47;;;;;;;21.09;64.13;101094.38;5036885;28;20586;-72
2023/07/04 08:59:28;;;;;;;17.20;4.70;;;;;;;21.56;62.33;101100.25;5037268;28;20037;-72
2023/07/04 09:02:08;;;;;;;13.50;4.28;;;;;;;21.93;62.70;101105.31;5033850;28;20736;-72
2023/07/04 09:04:56;;;;;;;13.65;4.35;;;;;;;21.95;61.79;101108.72;5035490;28;20037;-72
2023/07/04 09:07:37;;;;;;;21.98;5.07;;;;;;;22.45;62.88;101107.00;5038554;28;20030;-73
2023/07/04 09:10:09;;;;;;;15.57;4.82;;;;;;;22.31;63.91;101103.06;5034525;28;20649;-73
2023/07/04 09:12:40;;;;;;;15.02;4.97;;;;;;;22.59;63.73;101119.06;5038073;28;20791;-75
2023/07/04 09:15:13;;;;;;;18.98;5.25;;;;;;;21.97;61.75;101120.25;5033770;28;20616;-72
2023/07/04 09:17:43;;;;;;;;;;;;;;;21.77;62.46;101109.84;5040410;28;20072;-72
2023/07/04 09:20:09;;;;;;;14.80;4.68;;;;;;;22.15;63.21;101113.91;5039125;28;19925;-73
2023/07/04 09:22:36;;;;;;;21.88;5.28;;;;;;;22.44;62.19;101119.75;5039753;28;20029;-72
2023/07/04 09:25:05;;;;;;;22.35;5.25;;;;;;;22.52;60.94;101126.19;5044954;28;20084;-71
2023/07/04 09:27:32;;;;;;;15.43;4.50;;;;;;;22.97;60.91;101121.13;5043286;28;20040;-72
2023/07/04 09:29:57;;;;;;;18.23;4.50;;;;;;;23.16;60.67;101127.25;5042176;28;20379;-72
2023/07/04 09:32:23;;;;;;;16.00;4.40;;;;;;;23.09;59.69;101126.22;5040126;28;20041;-72
2023/07/04 09:34:59;;;;;;;15.57;3.97;;;;;;;22.78;61.18;101132.31;5035362;28;20651;-72
2023/07/04 09:37:25;;;;;;;13.77;3.88;;;;;;;22.55;58.60;101139.47;5038837;28;20033;-73
2023/07/04 09:39:54;;;;;;;14.90;3.80;;;;;;;21.82;60.14;101140.91;5053445;28;20037;-72
2023/07/04 09:42:23;;;;;;;15.57;3.80;;;;;;;22.29;59.56;101145.88;5037082;28;20038;-72
2023/07/04 09:44:53;;;;;;;13.70;3.65;;;;;;;22.18;58.27;101144.28;5035376;28;20828;-73
2023/07/04 09:47:23;;;;;;;11.07;3.53;;;;;;;22.31;58.68;101143.84;5040022;28;20076;-73
2023/07/04 09:50:14;;;;;;;13.95;4.63;;;;;;;22.40;58.44;101139.28;5039834;28;20136;-74
2023/07/04 09:52:41;;;;;;;16.60;4.07;;;;;;;22.81;61.41;101137.44;5036602;28;20057;-73
2023/07/04 09:55:13;;;;;;;16.60;3.97;;;;;;;23.17;58.80;101123.50;5033675;28;20044;-72
2023/07/04 09:57:40;;;;;;;16.95;3.88;;;;;;;23.25;56.21;101135.22;5034495;28;20847;-72
2023/07/04 10:00:32;;;;;;;11.57;3.83;;;;;;;23.64;56.69;101128.16;5041172;28;20088;-73
2023/07/04 10:03:07;;;;;;;15.02;3.65;;;;;;;23.65;54.37;101140.78;5036935;28;20135;-74
2023/07/04 10:05:37;;;;;;;11.15;3.20;;;;;;;23.95;56.10;101129.06;5034086;28;20048;-74
2023/07/04 10:08:12;;;;;;;13.93;4.00;;;;;;;24.30;53.28;101129.56;5040775;28;20112;-74
2023/07/04 10:10:59;;;;;;;10.45;3.47;;;;;;;24.33;53.82;101134.66;5043444;28;20061;-74
2023/07/04 10:13:33;;;;;;;15.52;3.85;;;;;;;24.23;54.94;101118.53;5037464;28;20037;-73
2023/07/04 10:15:59;;;;;;;15.30;4.28;;;;;;;23.82;51.88;101126.06;5039631;28;20088;-73
2023/07/04 10:18:30;;;;;;;13.48;3.53;;;;;;;23.77;53.66;101131.19;5037630;28;20061;-72
2023/07/04 10:20:58;;;;;;;13.13;3.13;;;;;;;24.08;54.61;101124.91;5036206;28;20059;-73
2023/07/04 10:23:26;;;;;;;12.35;3.58;;;;;;;24.19;54.64;101133.53;5029895;28;20190;-72
2023/07/04 10:25:54;;;;;;;16.98;4.00;;;;;;;23.53;53.47;101122.03;5035271;28;20056;-73
2023/07/04 10:28:25;;;;;;;10.82;3.65;;;;;;;23.20;52.40;101129.47;5033926;28;20043;-73
2023/07/04 10:30:56;;;;;;;14.00;4.20;;;;;;;23.68;53.13;101127.66;5030757;28;20064;-73
2023/07/04 10:33:32;;;;;;;17.27;3.77;;;;;;;24.23;52.26;101118.53;5030855;28;20079;-72
2023/07/04 10:35:58;;;;;;;14.02;3.40;;;;;;;23.73;52.79;101130.69;5033531;28;21033;-72
2023/07/04 10:38:44;;;;;;;16.35;4.43;;;;;;;23.45;51.74;101130.25;5033763;28;20040;-72
2023/07/04 10:41:23;;;;;;;14.98;3.75;;;;;;;22.70;53.15;101145.94;5035568;28;20104;-72
2023/07/04 10:43:56;;;;;;;13.70;3.80;;;;;;;22.79;53.14;101154.94;5030501;28;20041;-72
2023/07/04 10:46:25;;;;;;;11.20;3.60;;;;;;;23.21;53.45;101139.31;5030362;28;21270;-72
2023/07/04 10:49:01;;;;;;;9.98;3.40;;;;;;;23.78;52.91;101143.78;5037464;28;20041;-74
2023/07/04 10:51:38;;;;;;;10.75;3.63;;;;;;;23.56;52.26;101145.38;5029773;28;20045;-72
2023/07/04 10:54:07;;;;;;;11.13;3.10;;;;;;;23.60;51.79;101141.28;5036642;28;20033;-73
2023/07/04 10:56:35;;;;;;;12.88;4.18;;;;;;;23.81;52.27;101142.59;5035157;28;20037;-72
2023/07/04 10:59:10;;;;;;;10.38;3.30;;;;;;;24.56;50.08;101142.88;5040554;28;20091;-72
2023/07/04 11:01:41;;;;;;;12.70;3.80;;;;;;;24.78;50.52;101142.03;5034153;28;20069;-71
2023/07/04 11:04:23;;;;;;;9.90;3.72;;;;;;;24.42;51.77;101146.38;5035383;28;20033;-72
2023/07/04 11:06:55;;;;;;;;;;;;;;;23.67;50.28;101145.00;5035570;28;20037;-72
2023/07/04 11:09:20;;;;;;;;;;;;;;;23.82;49.08;101144.28;5034347;28;19956;-72
2023/07/04 11:11:49;;;;;;;15.18;3.72;;;;;;;24.05;48.68;101147.94;5030604;28;19927;-73
2023/07/04 11:14:23;;;;;;;16.77;3.42;;;;;;;23.84;49.57;101147.66;5030605;28;20041;-71
2023/07/04 11:16:54;;;;;;;13.18;3.25;;;;;;;24.01;49.44;101155.59;5030759;28;20034;-71
2023/07/04 11:19:22;;;;;;;16.58;3.58;;;;;;;23.51;49.29;101147.75;5033542;28;20045;-72
2023/07/04 11:22:00;;;;;;;11.82;3.38;;;;;;;23.72;49.63;101142.63;5033855;28;20038;-72